Time;durP1;ratioP1;P1;durP2;ratioP2;P2;SDS_P1;SDS_P2;PMS_P1;PMS_P2;Temp;Humidity;BMP_temperature;BMP_pressure;BME280_temperature;BME280_humidity;BME280_pressure;Samples;Min_cycle;Max_cycle;Signal;HPM_P1;HPM_P2
2021/03/11 00:01:19;;;;;;;17.70;13.00;;;9.80;90.00;;;;;;5111404;28;20235;-63
2021/03/11 00:03:44;;;;;;;14.13;12.73;;;9.90;89.60;;;;;;5112272;28;20180;-63
2021/03/11 00:06:10;;;;;;;13.70;12.03;;;9.90;90.10;;;;;;5099733;28;20166;-63
2021/03/11 00:08:35;;;;;;;13.53;12.13;;;10.00;88.20;;;;;;5079597;28;20224;-63
2021/03/11 00:11:01;;;;;;;15.10;13.50;;;10.00;88.70;;;;;;5070756;28;20542;-63
2021/03/11 00:13:26;;;;;;;13.23;11.93;;;10.10;88.40;;;;;;5070812;28;20173;-63
2021/03/11 00:15:52;;;;;;;15.20;12.77;;;10.10;88.00;;;;;;5072461;28;20195;-62
2021/03/11 00:18:18;;;;;;;14.20;12.10;;;10.00;88.60;;;;;;5080105;28;20252;-63
2021/03/11 00:20:43;;;;;;;12.83;11.53;;;10.00;89.00;;;;;;5079297;28;20250;-62
2021/03/11 00:23:09;;;;;;;16.50;14.43;;;10.00;88.90;;;;;;5070491;28;20255;-63
2021/03/11 00:25:36;;;;;;;13.50;11.83;;;9.90;89.50;;;;;;5069637;28;20178;-64
2021/03/11 00:28:03;;;;;;;16.10;12.00;;;10.00;88.50;;;;;;5084075;28;20207;-63
2021/03/11 00:30:29;;;;;;;15.27;12.90;;;10.10;88.80;;;;;;5090785;28;20453;-63
2021/03/11 00:32:55;;;;;;;13.80;11.13;;;10.00;88.60;;;;;;5090900;28;20897;-63
2021/03/11 00:35:21;;;;;;;13.27;11.30;;;10.00;89.20;;;;;;5090882;28;20195;-63
2021/03/11 00:37:48;;;;;;;14.80;12.87;;;10.10;89.50;;;;;;5089914;28;20656;-63
2021/03/11 00:40:16;;;;;;;15.70;12.10;;;10.00;89.40;;;;;;5090998;28;20430;-63
2021/03/11 00:42:43;;;;;;;16.30;12.33;;;10.00;89.90;;;;;;5090955;28;20489;-63
2021/03/11 00:45:10;;;;;;;14.20;11.77;;;10.00;89.90;;;;;;5090582;28;20464;-63
2021/03/11 00:47:37;;;;;;;13.60;11.67;;;10.20;89.70;;;;;;5090775;28;20494;-63
2021/03/11 00:50:08;;;;;;;15.30;12.40;;;10.00;89.70;;;;;;5090598;28;20431;-63
2021/03/11 00:52:33;;;;;;;15.70;11.30;;;10.10;89.60;;;;;;5090243;28;20448;-63
2021/03/11 00:54:59;;;;;;;17.73;13.00;;;10.10;89.30;;;;;;5090180;28;20553;-63
2021/03/11 00:57:24;;;;;;;13.90;12.07;;;10.00;90.00;;;;;;5090280;28;20644;-60
2021/03/11 00:59:50;;;;;;;13.80;11.73;;;10.00;90.20;;;;;;5089027;28;20194;-65
2021/03/11 01:02:16;;;;;;;15.60;13.50;;;10.10;90.10;;;;;;5090048;28;20176;-64
2021/03/11 01:04:41;;;;;;;17.57;12.60;;;10.00;90.00;;;;;;5090567;28;20181;-63
2021/03/11 01:07:07;;;;;;;14.53;12.67;;;10.00;90.40;;;;;;5080477;28;20180;-63
2021/03/11 01:09:33;;;;;;;14.30;12.40;;;10.10;90.60;;;;;;5077160;28;20175;-63
2021/03/11 01:11:59;;;;;;;13.33;11.93;;;10.10;90.10;;;;;;5076648;28;20193;-63
2021/03/11 01:14:24;;;;;;;15.00;12.00;;;10.30;90.10;;;;;;5076245;28;20612;-63
2021/03/11 01:16:51;;;;;;;13.30;11.83;;;10.20;90.10;;;;;;5076674;28;20193;-63
2021/03/11 01:19:17;;;;;;;14.63;11.87;;;10.10;90.10;;;;;;5076268;28;20169;-63
2021/03/11 01:21:43;;;;;;;13.50;12.10;;;10.20;90.20;;;;;;5076359;28;20460;-63
2021/03/11 01:24:09;;;;;;;14.37;11.27;;;10.40;90.30;;;;;;5076237;28;20442;-63
2021/03/11 01:26:34;;;;;;;14.20;12.07;;;10.40;90.40;;;;;;5076108;28;20634;-65
2021/03/11 01:29:00;;;;;;;14.47;12.57;;;10.40;90.50;;;;;;5076723;28;20640;-65
2021/03/11 01:31:28;;;;;;;14.13;11.20;;;10.20;90.20;;;;;;5075238;28;20197;-63
2021/03/11 01:33:54;;;;;;;11.93;10.83;;;10.10;90.40;;;;;;5075865;28;20169;-63
2021/03/11 01:36:20;;;;;;;13.20;11.53;;;10.00;90.60;;;;;;5075865;28;20857;-62
2021/03/11 01:38:45;;;;;;;13.27;10.57;;;10.00;90.90;;;;;;5076322;28;20172;-62
2021/03/11 01:41:11;;;;;;;10.80;9.63;;;10.00;90.90;;;;;;5075877;28;20424;-63
2021/03/11 01:43:36;;;;;;;11.73;9.70;;;10.10;91.10;;;;;;5075796;28;20508;-63
2021/03/11 01:46:02;;;;;;;12.97;10.30;;;10.10;91.30;;;;;;5075904;28;20256;-63
2021/03/11 01:48:28;;;;;;;10.53;9.30;;;10.30;91.20;;;;;;5075856;28;20264;-63
2021/03/11 01:50:53;;;;;;;15.47;10.10;;;10.30;91.10;;;;;;5104603;22;20221;-63
2021/03/11 01:53:19;;;;;;;11.83;9.67;;;10.40;91.10;;;;;;5075380;28;20560;-64
2021/03/11 01:55:45;;;;;;;8.33;7.60;;;10.40;91.10;;;;;;5075104;28;20318;-64
2021/03/11 01:58:11;;;;;;;9.73;7.80;;;10.30;91.40;;;;;;5075649;28;20209;-64
2021/03/11 02:00:37;;;;;;;7.97;7.17;;;10.30;91.70;;;;;;5081943;28;20691;-64
2021/03/11 02:03:04;;;;;;;8.27;6.80;;;10.00;92.30;;;;;;5095431;28;20464;-64
2021/03/11 02:05:30;;;;;;;6.90;6.20;;;9.90;93.60;;;;;;5095565;28;20923;-64
2021/03/11 02:07:56;;;;;;;5.87;5.27;;;9.90;93.90;;;;;;5095415;28;20440;-64
2021/03/11 02:10:24;;;;;;;6.80;6.10;;;9.90;93.80;;;;;;5094946;28;20448;-65
2021/03/11 02:13:28;;;;;;;7.30;5.90;;;10.00;93.50;;;;;;5095288;28;20200;-64
2021/03/11 02:15:59;;;;;;;6.53;5.57;;;10.10;93.50;;;;;;5096759;28;20450;-65
2021/03/11 02:18:35;;;;;;;7.87;6.00;;;10.20;93.50;;;;;;5094276;28;20762;-65
2021/03/11 02:21:09;;;;;;;6.23;5.40;;;10.30;93.30;;;;;;5094666;28;20937;-65
2021/03/11 02:24:00;;;;;;;6.57;5.47;;;10.40;93.20;;;;;;5094802;28;20396;-65
2021/03/11 02:26:49;;;;;;;5.43;4.93;;;10.60;93.50;;;;;;5095162;28;20383;-65
2021/03/11 02:29:28;;;;;;;6.90;5.20;;;10.80;93.10;;;;;;5095366;28;20750;-64
2021/03/11 02:31:57;;;;;;;6.60;5.53;;;10.80;93.00;;;;;;5094772;28;20430;-65
2021/03/11 02:34:25;;;;;;;7.73;5.90;;;10.80;93.00;;;;;;5094600;28;20441;-65
2021/03/11 02:36:55;;;;;;;6.47;5.40;;;10.70;93.10;;;;;;5094148;28;20403;-65
2021/03/11 02:39:23;;;;;;;7.40;6.40;;;10.50;93.40;;;;;;5095260;28;20404;-65
2021/03/11 02:41:52;;;;;;;7.10;5.20;;;10.50;93.10;;;;;;5094672;28;20433;-65
2021/03/11 02:44:20;;;;;;;8.03;6.60;;;10.60;93.40;;;;;;5094529;28;20399;-65
2021/03/11 02:46:46;;;;;;;7.40;6.10;;;10.60;93.10;;;;;;5094878;28;20395;-65
2021/03/11 02:49:12;;;;;;;9.30;5.63;;;10.40;92.90;;;;;;5094458;28;20473;-65
2021/03/11 02:51:38;;;;;;;10.30;7.03;;;10.30;93.30;;;;;;5094035;28;20445;-65
2021/03/11 02:54:05;;;;;;;7.80;6.87;;;10.30;93.40;;;;;;5094349;28;20487;-65
2021/03/11 02:56:31;;;;;;;9.17;7.27;;;10.20;93.20;;;;;;5094684;28;20418;-65
2021/03/11 02:58:58;;;;;;;8.20;6.70;;;10.30;93.10;;;;;;5094386;28;20933;-65
2021/03/11 03:01:25;;;;;;;7.80;6.97;;;10.50;93.40;;;;;;5094786;28;20423;-71
2021/03/11 03:03:52;;;;;;;7.23;6.53;;;10.40;92.80;;;;;;5094520;28;20401;-65
2021/03/11 03:06:19;;;;;;;7.97;6.70;;;10.30;93.10;;;;;;5094538;28;20820;-65
2021/03/11 03:08:46;;;;;;;7.67;6.60;;;10.20;92.80;;;;;;5094547;28;20907;-64
2021/03/11 03:11:13;;;;;;;12.00;8.43;;;10.10;92.70;;;;;;5093614;28;20798;-65
2021/03/11 03:13:41;;;;;;;10.67;7.10;;;10.00;92.80;;;;;;5094556;28;20971;-65
2021/03/11 03:16:08;;;;;;;8.17;7.00;;;10.00;93.00;;;;;;5094411;28;20592;-64
2021/03/11 03:18:35;;;;;;;7.70;6.90;;;10.30;92.80;;;;;;5093982;28;20908;-65
2021/03/11 03:21:08;;;;;;;9.53;6.63;;;10.40;92.60;;;;;;5093680;28;20855;-65
2021/03/11 03:23:34;;;;;;;9.00;7.80;;;10.60;92.50;;;;;;5076341;28;20770;-65
2021/03/11 03:26:00;;;;;;;13.40;7.97;;;10.50;92.20;;;;;;5094169;28;20929;-65
2021/03/11 03:28:25;;;;;;;8.53;7.37;;;10.20;92.50;;;;;;5093829;28;20489;-65
2021/03/11 03:30:51;;;;;;;10.50;8.37;;;10.30;93.00;;;;;;5093483;28;20231;-65
2021/03/11 03:33:17;;;;;;;8.57;7.67;;;10.30;93.50;;;;;;5094254;28;20180;-65
2021/03/11 03:35:43;;;;;;;8.37;7.47;;;10.30;94.10;;;;;;5093478;28;20194;-65
2021/03/11 03:38:09;;;;;;;9.27;8.03;;;10.10;93.90;;;;;;5093736;28;20162;-65
2021/03/11 03:40:35;;;;;;;9.47;8.47;;;10.20;94.90;;;;;;5093869;28;20524;-64
2021/03/11 03:43:24;;;;;;;10.00;7.87;;;10.20;95.00;;;;;;5093580;28;20405;-65
2021/03/11 03:45:53;;;;;;;7.60;6.73;;;10.20;94.80;;;;;;5093987;28;20874;-65
2021/03/11 03:48:27;;;;;;;8.40;7.17;;;10.20;94.10;;;;;;5093863;28;20405;-65
2021/03/11 03:50:54;;;;;;;8.37;7.07;;;10.30;95.10;;;;;;5093119;28;20449;-65
2021/03/11 03:53:24;;;;;;;7.40;6.17;;;10.10;95.00;;;;;;5093890;28;20906;-65
2021/03/11 03:55:57;;;;;;;6.10;5.50;;;9.90;95.60;;;;;;5093577;28;20442;-65
2021/03/11 03:58:25;;;;;;;7.13;6.43;;;9.90;95.90;;;;;;5093696;28;20378;-64
2021/03/11 04:00:51;;;;;;;8.37;6.40;;;9.90;96.00;;;;;;5093546;28;20822;-65
2021/03/11 04:03:20;;;;;;;6.83;6.13;;;10.00;95.20;;;;;;5093672;28;20436;-65
2021/03/11 04:05:48;;;;;;;6.77;5.77;;;10.10;95.40;;;;;;5093149;28;20405;-65
2021/03/11 04:08:15;;;;;;;6.40;5.80;;;10.20;95.60;;;;;;5093723;28;20962;-64
2021/03/11 04:10:42;;;;;;;5.63;5.13;;;10.20;94.90;;;;;;5093155;28;20428;-65
2021/03/11 04:13:08;;;;;;;5.93;4.80;;;10.40;95.50;;;;;;5093478;28;20416;-64
2021/03/11 04:15:35;;;;;;;9.17;5.97;;;10.40;95.50;;;;;;5093243;28;20457;-64
2021/03/11 04:18:01;;;;;;;7.53;5.23;;;10.40;95.90;;;;;;5093053;28;20415;-64
2021/03/11 04:20:27;;;;;;;5.50;4.30;;;10.60;96.30;;;;;;5092935;28;20427;-65
2021/03/11 04:22:55;;;;;;;8.90;5.47;;;10.60;96.40;;;;;;5095571;28;20934;-65
2021/03/11 04:25:20;;;;;;;6.90;4.20;;;10.80;96.70;;;;;;5093589;28;20486;-65
2021/03/11 04:27:46;;;;;;;8.37;4.70;;;10.80;96.70;;;;;;5093410;28;20439;-65
2021/03/11 04:30:12;;;;;;;4.53;4.13;;;10.90;96.70;;;;;;5093259;28;20177;-65
2021/03/11 04:32:38;;;;;;;3.90;3.43;;;11.00;96.60;;;;;;5093025;28;20171;-65
2021/03/11 04:35:08;;;;;;;5.10;4.13;;;10.90;97.20;;;;;;5092913;28;20810;-65
2021/03/11 04:37:35;;;;;;;4.60;3.93;;;10.90;97.20;;;;;;5092574;28;20500;-64
2021/03/11 04:40:01;;;;;;;5.47;3.90;;;10.90;97.30;;;;;;5092867;28;20403;-65
2021/03/11 04:42:27;;;;;;;5.53;3.67;;;10.90;97.50;;;;;;5096018;28;20498;-65
2021/03/11 04:44:53;;;;;;;8.43;4.00;;;11.00;97.70;;;;;;5096933;28;20170;-65
2021/03/11 04:47:19;;;;;;;6.10;3.30;;;10.90;97.90;;;;;;5097037;28;20180;-65
2021/03/11 04:49:45;;;;;;;4.33;3.93;;;11.00;97.90;;;;;;5097423;28;20177;-64
2021/03/11 04:52:11;;;;;;;8.80;4.27;;;10.80;97.90;;;;;;5096483;28;20209;-65
2021/03/11 04:54:37;;;;;;;5.03;3.60;;;10.80;98.20;;;;;;5096466;28;20474;-65
2021/03/11 04:57:03;;;;;;;6.37;3.77;;;10.80;98.30;;;;;;5096733;28;20169;-65
2021/03/11 04:59:31;;;;;;;3.10;2.73;;;10.90;98.30;;;;;;5096402;28;20402;-65
2021/03/11 05:02:00;;;;;;;3.77;3.40;;;11.00;98.50;;;;;;5096634;28;20838;-65
2021/03/11 05:04:27;;;;;;;3.63;3.23;;;11.00;98.60;;;;;;5096421;28;20424;-65
2021/03/11 05:06:52;;;;;;;5.30;3.60;;;11.00;98.80;;;;;;5096098;28;20395;-65
2021/03/11 05:09:18;;;;;;;4.40;4.00;;;11.00;98.90;;;;;;5078083;28;20476;-65
2021/03/11 05:11:50;;;;;;;5.13;4.40;;;11.00;98.70;;;;;;5096460;28;20251;-65
2021/03/11 05:14:15;;;;;;;4.40;3.20;;;11.00;98.60;;;;;;5096391;28;20158;-64
2021/03/11 05:16:41;;;;;;;5.33;3.87;;;10.90;99.10;;;;;;5096067;28;20416;-65
2021/03/11 05:19:06;;;;;;;4.03;3.37;;;10.90;99.20;;;;;;5096132;28;20170;-65
2021/03/11 05:21:33;;;;;;;4.20;3.70;;;10.80;99.20;;;;;;5095519;28;20264;-65
2021/03/11 05:23:59;;;;;;;7.00;4.27;;;10.90;99.30;;;;;;5096148;28;20363;-65
2021/03/11 05:26:25;;;;;;;4.90;4.20;;;11.00;99.30;;;;;;5095852;28;20435;-65
2021/03/11 05:28:51;;;;;;;5.73;3.77;;;10.90;99.30;;;;;;5095853;28;20162;-65
2021/03/11 05:31:16;;;;;;;3.93;3.40;;;10.90;99.20;;;;;;5096005;28;20431;-64
2021/03/11 05:33:42;;;;;;;4.37;3.40;;;10.80;99.60;;;;;;5095739;28;20511;-65
2021/03/11 05:36:08;;;;;;;5.67;4.30;;;10.70;99.90;;;;;;5095473;28;20196;-65
2021/03/11 05:38:33;;;;;;;4.93;4.00;;;10.70;99.90;;;;;;5095875;28;20165;-65
2021/03/11 05:41:00;;;;;;;4.60;4.07;;;10.70;99.90;;;;;;5095759;28;20191;-65
2021/03/11 05:43:27;;;;;;;5.10;3.40;;;10.70;99.90;;;;;;5095707;28;20549;-65
2021/03/11 05:45:53;;;;;;;4.43;4.03;;;10.80;99.90;;;;;;5095562;28;20407;-65
2021/03/11 05:48:20;;;;;;;3.90;3.50;;;10.80;99.90;;;;;;5095753;28;20753;-65
2021/03/11 05:50:46;;;;;;;5.57;3.70;;;10.80;99.90;;;;;;5094874;28;20969;-65
2021/03/11 05:53:13;;;;;;;4.10;3.70;;;10.70;99.90;;;;;;5095238;28;20409;-65
2021/03/11 05:55:42;;;;;;;4.80;3.80;;;10.60;99.90;;;;;;5095247;28;20689;-65
2021/03/11 05:58:08;;;;;;;5.77;4.47;;;10.70;99.90;;;;;;5095430;28;20407;-65
2021/03/11 06:00:35;;;;;;;5.40;3.67;;;10.60;99.90;;;;;;5094889;28;20422;-64
2021/03/11 06:03:01;;;;;;;4.33;3.40;;;10.70;99.90;;;;;;5095240;28;20925;-65
2021/03/11 06:05:27;;;;;;;4.30;3.57;;;10.80;99.90;;;;;;5093821;28;20929;-65
2021/03/11 06:07:54;;;;;;;4.30;3.40;;;10.90;99.90;;;;;;5094691;28;20525;-64
2021/03/11 06:10:21;;;;;;;5.87;3.50;;;10.90;99.90;;;;;;5095097;28;20507;-65
2021/03/11 06:12:49;;;;;;;7.70;5.00;;;10.90;99.90;;;;;;5095382;28;20427;-65
2021/03/11 06:15:23;;;;;;;6.00;3.40;;;10.90;99.90;;;;;;5094796;28;20444;-65
2021/03/11 06:17:50;;;;;;;4.47;3.73;;;10.80;99.90;;;;;;5093930;28;20419;-65
2021/03/11 06:20:16;;;;;;;4.53;3.40;;;10.80;99.90;;;;;;5085909;28;20803;-65
2021/03/11 06:22:41;;;;;;;4.50;3.33;;;10.80;99.90;;;;;;5093347;28;20482;-65
2021/03/11 06:25:08;;;;;;;7.40;3.00;;;10.90;99.90;;;;;;5094537;28;20173;-65
2021/03/11 06:27:34;;;;;;;3.97;3.50;;;10.90;99.90;;;;;;5095043;28;20169;-65
2021/03/11 06:29:59;;;;;;;4.50;3.30;;;10.90;99.90;;;;;;5093578;28;20566;-65
2021/03/11 06:32:26;;;;;;;4.40;2.90;;;10.90;99.90;;;;;;5095319;28;20445;-66
2021/03/11 06:34:52;;;;;;;4.47;3.50;;;10.80;99.90;;;;;;5090230;28;20456;-65
2021/03/11 06:37:35;;;;;;;3.80;3.03;;;10.90;99.90;;;;;;5073835;28;20479;-66
2021/03/11 06:40:18;;;;;;;6.00;3.87;;;11.10;99.90;;;;;;5074351;28;20169;-66
2021/03/11 06:42:45;;;;;;;4.30;3.20;;;11.10;99.90;;;;;;5074196;28;20919;-66
2021/03/11 06:45:24;;;;;;;3.93;2.93;;;11.00;99.90;;;;;;5073949;28;20404;-66
2021/03/11 06:47:51;;;;;;;3.53;2.63;;;11.10;99.90;;;;;;5073815;28;20415;-66
2021/03/11 06:50:20;;;;;;;3.33;2.50;;;11.20;99.90;;;;;;5077065;28;20494;-65
2021/03/11 06:53:03;;;;;;;3.47;2.47;;;11.30;99.90;;;;;;5093862;28;20570;-66
2021/03/11 06:55:29;;;;;;;4.20;2.97;;;11.30;99.90;;;;;;5093860;28;20864;-67
2021/03/11 06:57:55;;;;;;;4.73;2.70;;;11.30;99.90;;;;;;5093820;28;20403;-66
2021/03/11 07:00:24;;;;;;;4.40;3.17;;;11.30;99.90;;;;;;5093665;28;20476;-68
2021/03/11 07:02:53;;;;;;;7.20;3.20;;;11.30;99.90;;;;;;5093690;28;20549;-66
2021/03/11 07:05:21;;;;;;;9.27;2.90;;;11.30;99.90;;;;;;5093343;28;20444;-67
2021/03/11 07:08:03;;;;;;;4.00;2.80;;;11.40;99.90;;;;;;5075292;28;20422;-66
2021/03/11 07:10:28;;;;;;;4.80;2.80;;;11.40;99.90;;;;;;5092463;28;20427;-66
2021/03/11 07:12:56;;;;;;;4.00;2.80;;;11.40;99.90;;;;;;5094643;28;20493;-66
2021/03/11 07:15:24;;;;;;;4.10;2.80;;;11.50;99.90;;;;;;5093436;28;20193;-66
2021/03/11 07:17:51;;;;;;;2.83;2.53;;;11.60;99.90;;;;;;5093747;28;20907;-66
2021/03/11 07:20:22;;;;;;;3.97;2.80;;;11.60;99.90;;;;;;5093588;28;20435;-67
2021/03/11 07:23:10;;;;;;;6.70;2.53;;;11.60;99.90;;;;;;5093313;28;20401;-66
2021/03/11 07:25:39;;;;;;;9.30;3.37;;;11.80;99.90;;;;;;5093733;28;20400;-66
2021/03/11 07:28:07;;;;;;;5.27;2.97;;;11.70;99.90;;;;;;5093469;28;20504;-66
2021/03/11 07:30:53;;;;;;;2.63;2.43;;;11.80;99.90;;;;;;5093206;28;20550;-66
2021/03/11 07:33:20;;;;;;;8.73;3.00;;;11.80;99.90;;;;;;5093565;28;20387;-66
2021/03/11 07:35:48;;;;;;;5.97;3.70;;;11.90;99.90;;;;;;5093935;28;20504;-67
2021/03/11 07:38:19;;;;;;;5.30;2.80;;;11.80;99.90;;;;;;5093854;28;20464;-67
2021/03/11 07:40:48;;;;;;;5.80;3.03;;;11.90;99.90;;;;;;5093512;28;20416;-66
2021/03/11 07:43:15;;;;;;;4.10;3.43;;;12.10;99.90;;;;;;5093981;28;20960;-67
2021/03/11 07:45:42;;;;;;;5.23;3.30;;;12.10;99.90;;;;;;5093557;28;20404;-66
2021/03/11 07:48:10;;;;;;;6.07;3.40;;;12.20;99.90;;;;;;5093384;28;20403;-67
2021/03/11 07:50:36;;;;;;;3.87;2.73;;;12.20;99.90;;;;;;5093938;28;20440;-65
2021/03/11 07:53:04;;;;;;;2.73;2.37;;;12.30;99.90;;;;;;5092889;28;20411;-65
2021/03/11 07:55:30;;;;;;;2.30;1.70;;;12.40;99.90;;;;;;5093138;28;20844;-66
2021/03/11 07:58:03;;;;;;;2.70;2.10;;;12.30;99.90;;;;;;5093007;28;20409;-65
2021/03/11 08:00:29;;;;;;;2.63;2.10;;;12.30;99.90;;;;;;5093100;28;20484;-66
2021/03/11 08:03:14;;;;;;;3.80;2.07;;;12.40;99.90;;;;;;5093171;28;20402;-63
2021/03/11 08:05:40;;;;;;;2.97;1.93;;;12.50;99.90;;;;;;5092915;28;20707;-65
2021/03/11 08:08:22;;;;;;;3.97;1.93;;;12.40;99.90;;;;;;5092609;28;20433;-65
2021/03/11 08:10:54;;;;;;;6.17;3.20;;;12.50;99.90;;;;;;5093091;28;20457;-65
2021/03/11 08:13:37;;;;;;;3.57;2.67;;;12.40;99.90;;;;;;5093074;28;20409;-65
2021/03/11 08:16:09;;;;;;;6.93;2.40;;;12.50;99.90;;;;;;5093337;28;20785;-65
2021/03/11 08:18:34;;;;;;;3.00;2.20;;;12.50;99.90;;;;;;5078740;28;20410;-65
2021/03/11 08:21:05;;;;;;;7.70;2.20;;;12.60;99.90;;;;;;5097038;28;20435;-65
2021/03/11 08:23:31;;;;;;;4.60;2.10;;;12.70;99.90;;;;;;5096918;28;20254;-65
2021/03/11 08:25:57;;;;;;;2.60;1.80;;;12.80;99.90;;;;;;5096958;28;20398;-66
2021/03/11 08:28:26;;;;;;;3.83;1.90;;;13.00;99.90;;;;;;5097430;28;20474;-66
2021/03/11 08:31:02;;;;;;;3.30;1.80;;;13.10;99.70;;;;;;5078454;28;20290;-66
2021/03/11 08:33:27;;;;;;;3.13;2.30;;;13.10;99.60;;;;;;5096850;28;20386;-66
2021/03/11 08:35:57;;;;;;;2.87;2.33;;;13.10;99.60;;;;;;5096882;28;20809;-66
2021/03/11 08:38:23;;;;;;;5.03;2.60;;;13.10;99.70;;;;;;5096310;28;20165;-66
2021/03/11 08:40:56;;;;;;;3.50;2.03;;;13.10;99.50;;;;;;5098842;28;20408;-67
2021/03/11 08:43:37;;;;;;;3.67;2.00;;;13.20;99.50;;;;;;5096352;28;20174;-66
2021/03/11 08:46:02;;;;;;;2.13;1.77;;;13.30;99.30;;;;;;5096316;28;20406;-66
2021/03/11 08:48:38;;;;;;;3.40;2.43;;;13.40;99.00;;;;;;5078290;28;20416;-66
2021/03/11 08:51:05;;;;;;;3.60;2.20;;;13.50;99.20;;;;;;5096324;28;20231;-66
2021/03/11 08:53:37;;;;;;;2.70;1.97;;;13.60;99.20;;;;;;5096419;28;20420;-66
2021/03/11 08:56:18;;;;;;;3.40;2.23;;;13.50;99.10;;;;;;5096300;28;20480;-66
2021/03/11 08:58:51;;;;;;;5.00;2.00;;;13.50;99.40;;;;;;5096625;28;20402;-66
2021/03/11 09:01:37;;;;;;;2.60;2.00;;;13.50;99.80;;;;;;5095974;28;20792;-67
2021/03/11 09:04:04;;;;;;;2.43;1.50;;;13.70;99.50;;;;;;5096269;28;20408;-66
2021/03/11 09:06:52;;;;;;;1.97;1.50;;;13.80;99.60;;;;;;5095915;28;20504;-67
2021/03/11 09:09:31;;;;;;;4.30;2.00;;;14.10;99.70;;;;;;5096310;28;20401;-66
2021/03/11 09:11:57;;;;;;;2.63;1.70;;;14.10;99.50;;;;;;5096106;28;20425;-67
2021/03/11 09:14:24;;;;;;;4.17;2.70;;;14.20;99.50;;;;;;5096015;28;20939;-66
2021/03/11 09:16:50;;;;;;;2.03;1.83;;;14.30;99.40;;;;;;5096022;28;20899;-66
2021/03/11 09:19:16;;;;;;;4.10;2.10;;;14.20;99.20;;;;;;5095794;28;20417;-66
2021/03/11 09:21:46;;;;;;;1.57;1.47;;;14.20;99.10;;;;;;5095363;28;20207;-67
2021/03/11 09:24:19;;;;;;;2.97;1.60;;;14.20;99.30;;;;;;5096074;28;20398;-66
2021/03/11 09:26:45;;;;;;;2.80;1.70;;;14.40;99.10;;;;;;5076430;28;20420;-66
2021/03/11 09:29:11;;;;;;;1.93;1.73;;;14.40;99.10;;;;;;5095527;28;20452;-66
2021/03/11 09:31:38;;;;;;;4.20;3.50;;;14.50;98.70;;;;;;5095550;28;20424;-66
2021/03/11 09:34:04;;;;;;;2.13;1.80;;;14.60;98.60;;;;;;5095874;28;20542;-66
2021/03/11 09:36:30;;;;;;;3.50;1.60;;;14.60;98.70;;;;;;5076753;28;20542;-65
2021/03/11 09:39:08;;;;;;;3.10;2.33;;;14.70;98.60;;;;;;5096537;28;20226;-67
2021/03/11 09:41:36;;;;;;;2.07;1.70;;;14.70;98.40;;;;;;5095304;28;20234;-69
2021/03/11 09:44:04;;;;;;;1.77;1.60;;;14.50;98.60;;;;;;5095727;28;20408;-66
2021/03/11 09:46:29;;;;;;;2.23;1.40;;;14.70;98.60;;;;;;5095812;28;20422;-66
2021/03/11 09:48:56;;;;;;;1.17;1.07;;;15.10;98.40;;;;;;5095390;28;20419;-66
2021/03/11 09:51:32;;;;;;;2.90;1.47;;;15.00;97.90;;;;;;5095223;28;20351;-65
2021/03/11 09:54:07;;;;;;;2.70;1.67;;;14.90;98.30;;;;;;5095265;28;20411;-65
2021/03/11 09:56:41;;;;;;;1.43;1.33;;;14.90;98.30;;;;;;5095582;28;20444;-66
2021/03/11 09:59:15;;;;;;;4.00;1.40;;;14.80;98.20;;;;;;5095760;28;20428;-66
2021/03/11 10:01:45;;;;;;;3.13;1.80;;;14.90;98.40;;;;;;5076932;28;20601;-66
2021/03/11 10:04:23;;;;;;;2.17;1.63;;;14.90;98.40;;;;;;5095352;28;20407;-66
2021/03/11 10:06:52;;;;;;;1.57;1.47;;;14.90;98.60;;;;;;5095125;28;20397;-66
2021/03/11 10:09:17;;;;;;;1.13;1.03;;;15.10;98.20;;;;;;5095130;28;20835;-65
2021/03/11 10:11:48;;;;;;;1.60;1.20;;;15.00;98.50;;;;;;5094870;28;20480;-65
2021/03/11 10:14:23;;;;;;;3.63;1.37;;;15.00;98.90;;;;;;5095461;28;20783;-65
2021/03/11 10:16:51;;;;;;;2.53;1.20;;;15.00;98.50;;;;;;5095180;28;20417;-65
2021/03/11 10:19:18;;;;;;;2.40;1.20;;;15.10;99.00;;;;;;5094880;28;20395;-65
2021/03/11 10:21:54;;;;;;;2.27;1.60;;;15.30;98.50;;;;;;5094567;28;20461;-66
2021/03/11 10:24:43;;;;;;;3.83;1.10;;;15.50;98.60;;;;;;5094434;28;20393;-65
2021/03/11 10:27:17;;;;;;;4.70;1.00;;;15.90;98.10;;;;;;5094599;28;20380;-66
2021/03/11 10:29:43;;;;;;;1.87;1.00;;;16.00;97.60;;;;;;5094679;28;20396;-66
2021/03/11 10:32:09;;;;;;;2.23;1.73;;;15.80;97.90;;;;;;5094587;28;20519;-65
2021/03/11 10:34:48;;;;;;;4.10;1.90;;;15.40;98.40;;;;;;5094498;28;20397;-67
2021/03/11 10:37:27;;;;;;;6.63;1.33;;;15.60;98.60;;;;;;5096729;28;20172;-65
2021/03/11 10:39:55;;;;;;;2.00;1.03;;;15.60;98.90;;;;;;5073073;28;20388;-65
2021/03/11 10:42:21;;;;;;;1.17;1.07;;;15.50;99.40;;;;;;5074034;28;20768;-65
2021/03/11 10:44:55;;;;;;;1.63;1.10;;;15.80;99.00;;;;;;5055954;28;20404;-66
2021/03/11 10:47:21;;;;;;;1.30;0.80;;;15.90;98.80;;;;;;5073935;28;20420;-66
2021/03/11 10:49:47;;;;;;;1.60;1.40;;;16.10;98.90;;;;;;5074018;28;20893;-65
2021/03/11 10:52:13;;;;;;;2.93;1.10;;;15.80;99.00;;;;;;5092777;28;20619;-65
2021/03/11 10:54:41;;;;;;;3.87;1.20;;;15.70;99.40;;;;;;5094173;28;20175;-64
2021/03/11 10:57:12;;;;;;;1.50;1.27;;;15.50;99.70;;;;;;5093868;28;20483;-65
2021/03/11 10:59:52;;;;;;;2.27;1.00;;;15.60;99.80;;;;;;5094079;28;20455;-65
2021/03/11 11:02:19;;;;;;;2.53;1.10;;;15.50;99.70;;;;;;5093743;28;20437;-66
2021/03/11 11:04:45;;;;;;;2.00;0.90;;;15.40;99.90;;;;;;5094018;28;20408;-66
2021/03/11 11:07:11;;;;;;;3.00;1.13;;;15.20;99.90;;;;;;5093694;28;20417;-65
2021/03/11 11:09:37;;;;;;;3.40;1.20;;;15.00;99.90;;;;;;5093591;28;20165;-65
2021/03/11 11:12:07;;;;;;;1.50;1.17;;;15.00;99.90;;;;;;5094410;28;20192;-65
2021/03/11 11:14:34;;;;;;;1.67;1.10;;;14.90;99.90;;;;;;5093887;28;20386;-66
2021/03/11 11:16:59;;;;;;;2.50;1.20;;;14.60;99.90;;;;;;5093852;28;20406;-65
2021/03/11 11:19:25;;;;;;;1.87;0.90;;;14.50;99.90;;;;;;5094045;28;20402;-67
2021/03/11 11:21:51;;;;;;;1.30;1.03;;;14.30;99.90;;;;;;5093471;28;20240;-66
2021/03/11 11:24:16;;;;;;;2.20;1.10;;;14.00;99.90;;;;;;5093482;28;20162;-66
2021/03/11 11:26:42;;;;;;;2.93;1.40;;;13.90;99.90;;;;;;5093502;28;20212;-66
2021/03/11 11:29:08;;;;;;;4.03;1.30;;;13.80;99.90;;;;;;5093771;28;20171;-66
2021/03/11 11:31:34;;;;;;;1.33;1.20;;;13.70;99.90;;;;;;5093668;28;20461;-67
2021/03/11 11:33:59;;;;;;;2.90;1.67;;;13.70;99.90;;;;;;5093615;28;20200;-66
2021/03/11 11:36:25;;;;;;;3.00;1.53;;;13.80;99.90;;;;;;5093939;28;20275;-67
2021/03/11 11:38:51;;;;;;;1.97;1.30;;;13.80;99.90;;;;;;5093190;28;20214;-67
2021/03/11 11:41:18;;;;;;;1.97;1.20;;;13.80;99.90;;;;;;5093507;28;20209;-66
2021/03/11 11:43:44;;;;;;;1.73;0.93;;;13.80;99.90;;;;;;5093216;28;20413;-67
2021/03/11 11:46:10;;;;;;;4.50;1.23;;;13.70;99.90;;;;;;5093534;28;20415;-67
2021/03/11 11:48:36;;;;;;;1.20;1.10;;;13.80;99.90;;;;;;5093538;28;20405;-67
2021/03/11 11:51:01;;;;;;;1.73;0.90;;;13.70;99.90;;;;;;5092938;28;20453;-67
2021/03/11 11:53:27;;;;;;;1.20;1.10;;;13.60;99.90;;;;;;5092941;28;20169;-67
2021/03/11 11:55:52;;;;;;;1.20;1.10;;;13.70;99.90;;;;;;5093597;28;20197;-67
2021/03/11 11:58:18;;;;;;;1.93;1.20;;;13.70;99.90;;;;;;5093403;28;20569;-66
2021/03/11 12:00:45;;;;;;;1.97;1.00;;;13.50;99.90;;;;;;5093628;28;20677;-65
2021/03/11 12:03:11;;;;;;;1.70;1.10;;;13.40;99.90;;;;;;5093332;28;20401;-64
2021/03/11 12:05:36;;;;;;;1.37;1.27;;;13.70;99.90;;;;;;5093577;28;20421;-66
2021/03/11 12:08:02;;;;;;;1.07;0.97;;;13.70;99.90;;;;;;5093112;28;20199;-65
2021/03/11 12:10:28;;;;;;;2.43;0.87;;;13.80;99.90;;;;;;5093250;28;20678;-65
2021/03/11 12:12:53;;;;;;;1.07;0.80;;;13.90;99.90;;;;;;5093676;28;20259;-64
2021/03/11 12:15:19;;;;;;;1.20;1.00;;;14.30;99.90;;;;;;5092861;28;20196;-64
2021/03/11 12:17:45;;;;;;;3.57;1.10;;;14.40;99.90;;;;;;5090807;28;20174;-65
2021/03/11 12:20:12;;;;;;;1.60;1.00;;;14.30;99.90;;;;;;5092736;28;20216;-65
2021/03/11 12:22:37;;;;;;;1.40;1.30;;;14.20;99.90;;;;;;5092730;28;20175;-65
2021/03/11 12:25:04;;;;;;;1.45;1.20;;;14.10;99.90;;;;;;5092424;28;20567;-65
2021/03/11 12:27:29;;;;;;;1.30;0.77;;;14.20;99.90;;;;;;5093557;28;20188;-64
2021/03/11 12:29:55;;;;;;;1.37;0.90;;;14.30;99.90;;;;;;5095061;28;20442;-64
2021/03/11 12:32:21;;;;;;;2.57;1.10;;;14.60;99.90;;;;;;5092864;28;20322;-65
2021/03/11 12:34:48;;;;;;;1.20;0.80;;;14.70;99.90;;;;;;5092865;28;20186;-64
2021/03/11 12:37:14;;;;;;;1.67;0.90;;;14.80;99.90;;;;;;5092758;28;20175;-64
2021/03/11 12:39:40;;;;;;;1.00;0.90;;;15.00;99.90;;;;;;5092593;28;20398;-64
2021/03/11 12:42:06;;;;;;;0.93;0.80;;;15.30;99.90;;;;;;5092879;28;20783;-64
2021/03/11 12:44:32;;;;;;;1.40;0.90;;;15.80;99.90;;;;;;5092884;28;20545;-64
2021/03/11 12:46:57;;;;;;;1.27;1.00;;;16.40;99.90;;;;;;5092864;28;20395;-64
2021/03/11 12:49:23;;;;;;;2.13;0.90;;;16.60;99.90;;;;;;5093043;28;20922;-63